createdAt,value
2023-04-24T00:01:15.393Z,48.63
2023-04-24T00:06:38.444Z,48.80
2023-04-24T00:12:00.358Z,49.11
2023-04-24T00:17:22.219Z,49.34
2023-04-24T00:22:44.048Z,49.84
2023-04-24T00:28:05.848Z,50.40
2023-04-24T00:33:27.680Z,50.42
2023-04-24T00:38:49.512Z,50.74
2023-04-24T00:44:11.477Z,50.92
2023-04-24T00:49:33.296Z,50.90
2023-04-24T00:54:55.104Z,51.24
2023-04-24T01:00:18.116Z,51.19
2023-04-24T01:05:40.041Z,51.48
2023-04-24T01:11:04.682Z,52.06
2023-04-24T01:16:26.706Z,53.33
2023-04-24T01:21:51.726Z,53.30
2023-04-24T01:27:14.238Z,53.30
2023-04-24T01:32:37.900Z,52.82
2023-04-24T01:37:59.854Z,53.52
2023-04-24T01:43:22.596Z,53.22
2023-04-24T01:48:46.523Z,53.75
2023-04-24T01:54:08.340Z,53.82
2023-04-24T01:59:30.962Z,54.23
2023-04-24T02:04:52.762Z,55.09
2023-04-24T02:10:14.573Z,55.14
2023-04-24T02:15:36.390Z,54.76
2023-04-24T02:20:58.228Z,55.23
2023-04-24T02:26:20.138Z,55.96
2023-04-24T02:31:41.991Z,55.91
2023-04-24T02:37:03.903Z,56.49
2023-04-24T02:42:25.749Z,57.05
2023-04-24T02:47:47.567Z,57.50
2023-04-24T02:53:09.432Z,57.68
2023-04-24T02:58:31.223Z,57.99
2023-04-24T03:03:53.230Z,57.83
2023-04-24T03:09:15.100Z,58.94
2023-04-24T03:14:36.915Z,60.22
2023-04-24T03:19:58.705Z,61.27
2023-04-24T03:25:20.556Z,61.41
2023-04-24T03:30:42.396Z,61.07
2023-04-24T03:36:04.460Z,60.63
2023-04-24T03:41:26.250Z,60.55
2023-04-24T03:46:48.018Z,60.58
2023-04-24T03:52:09.829Z,58.82
2023-04-24T03:57:31.650Z,56.64
2023-04-24T04:02:53.711Z,56.23
2023-04-24T04:08:15.916Z,57.22
2023-04-24T04:13:37.811Z,55.41
2023-04-24T04:18:59.657Z,53.59
2023-04-24T04:24:21.528Z,49.26
2023-04-24T04:29:43.473Z,42.80
2023-04-24T04:35:05.790Z,41.04
2023-04-24T04:40:27.608Z,38.45
2023-04-24T04:45:49.540Z,38.90
2023-04-24T04:51:11.344Z,41.21
2023-04-24T04:56:33.175Z,43.48
2023-04-24T05:01:54.944Z,43.64
2023-04-24T05:07:16.839Z,42.85
2023-04-24T05:12:38.632Z,40.45
2023-04-24T05:18:00.719Z,35.60
2023-04-24T05:23:22.594Z,33.33
2023-04-24T05:28:44.406Z,30.15
2023-04-24T05:34:06.817Z,28.70
2023-04-24T05:39:28.629Z,25.08
2023-04-24T05:44:52.063Z,23.75
2023-04-24T05:50:15.208Z,24.08
2023-04-24T05:55:37.690Z,22.48
2023-04-24T06:00:59.632Z,20.97
2023-04-24T06:06:21.460Z,20.46
2023-04-24T06:11:43.246Z,20.63
2023-04-24T06:17:05.061Z,21.04
2023-04-24T06:22:26.875Z,20.74
2023-04-24T06:27:48.727Z,20.02
2023-04-24T06:33:20.388Z,20.19
2023-04-24T06:38:43.695Z,19.08
2023-04-24T06:44:05.468Z,18.10
2023-04-24T06:49:27.287Z,18.03
2023-04-24T06:54:49.278Z,18.41
2023-04-24T07:00:11.756Z,18.99
2023-04-24T07:05:33.610Z,19.54
2023-04-24T07:10:55.415Z,19.35
2023-04-24T07:16:17.396Z,22.42
2023-04-24T07:21:39.310Z,18.52
2023-04-24T07:27:01.430Z,19.26
2023-04-24T07:32:23.232Z,20.85
2023-04-24T07:37:45.083Z,18.46
2023-04-24T07:43:06.995Z,18.40
2023-04-24T07:48:28.882Z,17.89
2023-04-24T07:53:50.701Z,16.88
2023-04-24T07:59:12.590Z,16.28
2023-04-24T08:04:34.858Z,18.24
2023-04-24T08:09:56.798Z,18.24
2023-04-24T08:15:18.866Z,17.86
2023-04-24T08:20:40.692Z,19.64
2023-04-24T08:26:02.634Z,20.28
2023-04-24T08:31:24.814Z,20.36
2023-04-24T08:36:47.687Z,19.35
2023-04-24T08:42:12.217Z,17.92
2023-04-24T08:47:34.589Z,20.50
2023-04-24T08:52:56.449Z,22.94
2023-04-24T08:58:18.565Z,23.82
2023-04-24T09:03:41.194Z,24.57
2023-04-24T09:09:03.785Z,24.79
2023-04-24T09:14:26.858Z,24.24
2023-04-24T09:19:48.674Z,24.41
2023-04-24T09:25:10.962Z,25.43
2023-04-24T09:30:32.993Z,25.79
2023-04-24T09:35:54.799Z,26.24
2023-04-24T09:41:16.631Z,25.38
2023-04-24T09:46:38.785Z,25.23
2023-04-24T09:52:09.252Z,24.98
2023-04-24T09:57:32.406Z,23.75
2023-04-24T10:02:58.172Z,24.27
2023-04-24T10:08:20.273Z,24.28
2023-04-24T10:13:42.350Z,24.59
2023-04-24T10:19:04.620Z,26.53
2023-04-24T10:24:26.450Z,27.98
2023-04-24T10:29:49.330Z,28.04
2023-04-24T10:35:14.346Z,28.07
2023-04-24T10:40:37.226Z,28.48
2023-04-24T10:46:04.093Z,28.62
2023-04-24T10:51:45.442Z,28.10
2023-04-24T10:57:19.309Z,27.73
2023-04-24T11:02:41.673Z,27.73
2023-04-24T11:08:15.357Z,27.09
2023-04-24T11:13:55.470Z,27.08
2023-04-24T11:19:17.229Z,27.15
2023-04-24T11:24:48.063Z,26.00
2023-04-24T11:30:11.519Z,25.08
2023-04-24T11:35:42.750Z,27.00
2023-04-24T11:41:04.630Z,26.98
2023-04-24T11:46:30.644Z,28.50
2023-04-24T11:51:58.053Z,28.43
2023-04-24T11:57:23.208Z,27.88
2023-04-24T12:02:45.474Z,27.73
2023-04-24T12:08:07.865Z,27.85
2023-04-24T12:13:29.954Z,27.00
2023-04-24T12:18:52.440Z,27.05
2023-04-24T12:24:14.468Z,26.85
2023-04-24T12:29:36.317Z,26.65
2023-04-24T12:34:59.161Z,27.34
2023-04-24T12:40:22.812Z,26.55
2023-04-24T12:45:44.932Z,28.19
2023-04-24T12:51:06.752Z,27.94
2023-04-24T12:56:28.828Z,28.48
2023-04-24T13:01:51.537Z,29.82
2023-04-24T13:07:14.248Z,29.94
2023-04-24T13:12:36.403Z,31.08
2023-04-24T13:17:58.381Z,31.81
2023-04-24T13:23:20.299Z,30.50
2023-04-24T13:28:42.112Z,29.95
2023-04-24T13:34:04.787Z,29.85
2023-04-24T13:39:27.505Z,29.91
2023-04-24T13:44:49.422Z,30.93
2023-04-24T13:50:11.585Z,31.62
2023-04-24T13:55:33.519Z,31.97
2023-04-24T14:00:56.002Z,31.49
2023-04-24T14:06:18.914Z,31.94
2023-04-24T14:11:41.073Z,31.85
2023-04-24T14:17:02.956Z,31.58
2023-04-24T14:22:24.800Z,31.11
2023-04-24T14:27:46.667Z,30.96
2023-04-24T14:33:08.536Z,29.71
2023-04-24T14:38:30.366Z,30.03
2023-04-24T14:43:52.210Z,28.97
2023-04-24T14:49:14.042Z,28.50
2023-04-24T14:54:35.879Z,27.75
2023-04-24T14:59:57.941Z,27.99
2023-04-24T15:05:20.235Z,28.54
2023-04-24T15:10:42.303Z,28.45
2023-04-24T15:16:04.291Z,29.35
2023-04-24T15:21:26.276Z,29.70
2023-04-24T15:26:48.158Z,29.65
2023-04-24T15:32:10.548Z,29.84
2023-04-24T15:37:32.682Z,29.91
2023-04-24T15:42:54.543Z,30.22
2023-04-24T15:48:16.469Z,30.79
2023-04-24T15:53:38.320Z,30.17
2023-04-24T15:59:00.160Z,30.31
2023-04-24T16:04:22.245Z,30.91
2023-04-24T16:09:44.841Z,30.15
2023-04-24T16:15:07.167Z,31.09
2023-04-24T16:20:28.989Z,30.64
2023-04-24T16:25:50.968Z,30.21
2023-04-24T16:31:12.849Z,30.41
2023-04-24T16:36:35.977Z,30.05
2023-04-24T16:41:59.790Z,30.09
2023-04-24T16:47:22.202Z,29.96
2023-04-24T16:52:44.180Z,30.18
2023-04-24T16:58:05.999Z,30.07
2023-04-24T17:03:28.028Z,30.23
2023-04-24T17:08:50.160Z,30.32
2023-04-24T17:14:12.312Z,30.62
2023-04-24T17:19:34.462Z,30.58
2023-04-24T17:24:56.299Z,30.91
2023-04-24T17:30:18.259Z,31.34
2023-04-24T17:35:40.168Z,31.42
2023-04-24T17:41:02.530Z,31.92
2023-04-24T17:46:24.493Z,31.92
2023-04-24T17:51:46.394Z,32.30
2023-04-24T17:57:08.277Z,32.73
2023-04-24T18:02:30.324Z,32.56
2023-04-24T18:07:52.172Z,32.69
2023-04-24T18:13:14.045Z,32.91
2023-04-24T18:18:35.975Z,32.97
2023-04-24T18:23:57.846Z,33.28
2023-04-24T18:29:19.715Z,33.70
2023-04-24T18:34:41.579Z,33.53
2023-04-24T18:40:03.701Z,33.77
2023-04-24T18:45:25.601Z,33.86
2023-04-24T18:50:47.451Z,33.66
2023-04-24T18:56:09.301Z,33.71
2023-04-24T19:01:31.298Z,34.25
2023-04-24T19:06:53.168Z,34.54
2023-04-24T19:12:15.119Z,34.61
2023-04-24T19:17:37.015Z,35.06
2023-04-24T19:22:58.893Z,35.20
2023-04-24T19:28:20.747Z,35.79
2023-04-24T19:33:42.581Z,36.07
2023-04-24T19:39:04.482Z,36.47
2023-04-24T19:44:26.296Z,36.58
2023-04-24T19:49:48.118Z,37.30
2023-04-24T19:55:10.128Z,37.66
2023-04-24T20:00:32.059Z,38.20
2023-04-24T20:05:54.214Z,38.07
2023-04-24T20:11:16.823Z,38.40
2023-04-24T20:16:38.709Z,38.77
2023-04-24T20:22:00.667Z,39.57
2023-04-24T20:27:22.573Z,39.84
2023-04-24T20:32:44.846Z,40.02
2023-04-24T20:38:06.807Z,40.34
2023-04-24T20:43:29.475Z,41.02
2023-04-24T20:48:51.507Z,42.41
2023-04-24T20:54:13.337Z,43.05
2023-04-24T20:59:35.548Z,46.19
2023-04-24T21:04:57.418Z,49.03
2023-04-24T21:10:19.328Z,50.42
2023-04-24T21:15:41.244Z,51.34
2023-04-24T21:21:03.240Z,52.87
2023-04-24T21:26:25.150Z,54.41
2023-04-24T21:31:47.008Z,54.96
2023-04-24T21:37:09.182Z,56.45
2023-04-24T21:42:31.348Z,57.87
2023-04-24T21:47:53.192Z,58.54
2023-04-24T21:53:15.148Z,59.54
2023-04-24T21:58:37.237Z,59.01
2023-04-24T22:03:59.461Z,59.56
2023-04-24T22:09:21.564Z,59.54
2023-04-24T22:14:43.429Z,61.05
2023-04-24T22:20:05.883Z,60.95
2023-04-24T22:25:27.730Z,61.91
2023-04-24T22:30:49.633Z,62.86
2023-04-24T22:36:11.580Z,62.99
2023-04-24T22:41:33.461Z,63.63
2023-04-24T22:46:55.717Z,64.94
2023-04-24T22:52:17.559Z,65.90
2023-04-24T22:57:40.262Z,66.46
2023-04-24T23:03:02.451Z,67.49
2023-04-24T23:08:24.549Z,68.31
2023-04-24T23:13:46.534Z,70.08
2023-04-24T23:19:08.524Z,70.07
2023-04-24T23:24:30.357Z,70.15
2023-04-24T23:29:52.214Z,70.76
2023-04-24T23:35:14.151Z,71.20
2023-04-24T23:40:36.149Z,72.84
2023-04-24T23:45:57.970Z,72.62
2023-04-24T23:51:20.036Z,72.69
2023-04-24T23:56:43.363Z,74.41
